Stalwart, Michigan
Current Conditions -  °F | °C
As of 1:55 PM on Saturday 25 Oct 2014 (Local Time) from KCIU Reporting Station
Overcast Overcast  
Wind Chill: 54°   Ceiling: 4800
Heat Index: 54°   Visibility: 10mi
Dew Point: 37°   Wind: 25mph
Humidity: 54%   Direction: 300°WNW
Pressure: 29.63"   Gusts: 33mph
Location:  46.1219°N, 84.1444°W
Report Text: KCIU 251755Z AUTO 30022G29KT 10SM BKN048 OVC050 12/03 A2963 RMK AO1 10140 20100 54000
Loading
Personal Weather Stations






























Interactive Weather Map
Tropical Storm Tracking
New forecast layout! Learn more

10-Day Weather Forecast

Advertisements
Track Severe Weather on mobile